Hlavní strana
METAR-TAF:

METAR-TAF

Letiště :

Meadow Lake, Saskatchewan, Kanada

zeměpisná šířka: 54-08N, zeměpisná délka: 108-31W, výška: 480 m

Aktuální stav počasí

Zpráva byla vytvořena před 2 hodinami a 33 minutami, v 00:00 UTC
Východoseverovýchodní vítr 3 kt
Teplota -7°C
Vlhkost vzduchu 93%
Tlak 1014 hPa
Viditelnost: 16.1 km
Polojasno ve výšce 21000 ft
Oblačno až skoro zataženo ve výšce 23000 ft

METAR: CYLJ 140000Z 06003KT 10SM SCT210 BKN230 M07/M08 A2993 RMK CI3CS4 BR SLP171

Čas: 20:33 (02:33 UTC)


TAF: chybějící

Stav a předpovědi počasí z více než 4 000 letišť (zprávy METAR a TAF).

Červené a žluté tečky na mapě představují dostupné meteorologické stanice.

Když kurzor umístíte na tečku, zobrazí se název stanice.

Pak kliknutím zobrazíte stav a předpověď počasí.

Chcete-li změnit mapu, kliknutím na zelené tlačítko se znaménkem +mapu přiblížíte, kliknutím na zelené tlačítko se znaménkem – mapu oddálíte a kliknutím na zelené šipky přejdete na sousední mapy.


METAR-TAF: